sensor_id;sensor_type;location;lat;lon;timestamp;pressure;altitude;pressure_sealevel;temperature;humidity
66681;BME280;73718;51.366;12.350;2023-12-29T00:01:13;99900.31;;;7.45;96.61
66681;BME280;73718;51.366;12.350;2023-12-29T00:03:38;99898.56;;;7.45;96.69
66681;BME280;73718;51.366;12.350;2023-12-29T00:06:04;99889.91;;;7.45;96.63
66681;BME280;73718;51.366;12.350;2023-12-29T00:08:30;99883.81;;;7.47;96.52
66681;BME280;73718;51.366;12.350;2023-12-29T00:10:56;99885.56;;;7.45;97.56
66681;BME280;73718;51.366;12.350;2023-12-29T00:13:21;99878.66;;;7.49;97.45
66681;BME280;73718;51.366;12.350;2023-12-29T00:15:52;99869.97;;;7.53;96.60
66681;BME280;73718;51.366;12.350;2023-12-29T00:18:18;99868.22;;;7.55;96.50
66681;BME280;73718;51.366;12.350;2023-12-29T00:20:43;99857.84;;;7.52;97.10
66681;BME280;73718;51.366;12.350;2023-12-29T00:23:09;99863.91;;;7.55;96.89
66681;BME280;73718;51.366;12.350;2023-12-29T00:25:37;99851.78;;;7.56;96.63
66681;BME280;73718;51.366;12.350;2023-12-29T00:28:04;99853.50;;;7.57;96.90
66681;BME280;73718;51.366;12.350;2023-12-29T00:30:29;99853.50;;;7.54;96.95
66681;BME280;73718;51.366;12.350;2023-12-29T00:32:55;99852.66;;;7.49;97.37
66681;BME280;73718;51.366;12.350;2023-12-29T00:35:21;99842.25;;;7.49;97.67
66681;BME280;73718;51.366;12.350;2023-12-29T00:37:46;99832.72;;;7.52;97.90
66681;BME280;73718;51.366;12.350;2023-12-29T00:40:12;99824.03;;;7.53;97.52
66681;BME280;73718;51.366;12.350;2023-12-29T00:42:37;99817.13;;;7.52;97.61
66681;BME280;73718;51.366;12.350;2023-12-29T00:45:04;99823.16;;;7.50;98.08
66681;BME280;73718;51.366;12.350;2023-12-29T00:47:29;99817.09;;;7.54;98.03
66681;BME280;73718;51.366;12.350;2023-12-29T00:49:54;99812.78;;;7.56;97.74
66681;BME280;73718;51.366;12.350;2023-12-29T00:52:20;99816.22;;;7.58;97.84
66681;BME280;73718;51.366;12.350;2023-12-29T00:54:45;99817.91;;;7.67;97.44
66681;BME280;73718;51.366;12.350;2023-12-29T00:57:11;99830.94;;;7.65;97.39
66681;BME280;73718;51.366;12.350;2023-12-29T00:59:41;99822.25;;;7.66;97.05
66681;BME280;73718;51.366;12.350;2023-12-29T01:02:06;99822.25;;;7.69;96.87
66681;BME280;73718;51.366;12.350;2023-12-29T01:04:33;99830.06;;;7.66;97.37
66681;BME280;73718;51.366;12.350;2023-12-29T01:06:59;99824.03;;;7.64;97.69
66681;BME280;73718;51.366;12.350;2023-12-29T01:09:26;99827.47;;;7.66;97.53
66681;BME280;73718;51.366;12.350;2023-12-29T01:11:52;99831.81;;;7.66;97.46
66681;BME280;73718;51.366;12.350;2023-12-29T01:14:17;99836.16;;;7.64;97.89
66681;BME280;73718;51.366;12.350;2023-12-29T01:16:42;99842.19;;;7.70;97.66
66681;BME280;73718;51.366;12.350;2023-12-29T01:19:08;99831.81;;;7.75;97.56
66681;BME280;73718;51.366;12.350;2023-12-29T01:21:33;99833.50;;;7.77;97.22
66681;BME280;73718;51.366;12.350;2023-12-29T01:24:02;99833.50;;;7.82;97.03
66681;BME280;73718;51.366;12.350;2023-12-29T01:26:36;99826.53;;;7.89;96.74
66681;BME280;73718;51.366;12.350;2023-12-29T01:29:02;99810.94;;;7.90;96.57
66681;BME280;73718;51.366;12.350;2023-12-29T01:31:30;99802.25;;;7.91;96.51
66681;BME280;73718;51.366;12.350;2023-12-29T01:33:56;99798.81;;;7.86;97.19
66681;BME280;73718;51.366;12.350;2023-12-29T01:36:22;99801.41;;;7.88;96.62
66681;BME280;73718;51.366;12.350;2023-12-29T01:38:47;99807.50;;;7.87;96.75
66681;BME280;73718;51.366;12.350;2023-12-29T01:41:13;99812.69;;;7.85;96.84
66681;BME280;73718;51.366;12.350;2023-12-29T01:46:25;99799.66;;;7.85;96.94
66681;BME280;73718;51.366;12.350;2023-12-29T01:48:51;99809.19;;;7.89;96.69
66681;BME280;73718;51.366;12.350;2023-12-29T01:51:17;99805.72;;;7.93;96.39
66681;BME280;73718;51.366;12.350;2023-12-29T01:53:45;99799.66;;;7.93;96.36
66681;BME280;73718;51.366;12.350;2023-12-29T01:56:10;99784.03;;;7.90;96.63
66681;BME280;73718;51.366;12.350;2023-12-29T01:58:36;99777.97;;;7.92;96.25
66681;BME280;73718;51.366;12.350;2023-12-29T02:01:03;99764.97;;;7.94;96.14
66681;BME280;73718;51.366;12.350;2023-12-29T02:03:30;99761.50;;;7.92;96.90
66681;BME280;73718;51.366;12.350;2023-12-29T02:05:56;99773.66;;;7.91;96.29
66681;BME280;73718;51.366;12.350;2023-12-29T02:08:22;99771.91;;;7.95;95.88
66681;BME280;73718;51.366;12.350;2023-12-29T02:10:48;99774.47;;;7.96;95.60
66681;BME280;73718;51.366;12.350;2023-12-29T02:13:14;99768.41;;;8.02;95.31
66681;BME280;73718;51.366;12.350;2023-12-29T02:15:40;99769.25;;;8.05;94.50
66681;BME280;73718;51.366;12.350;2023-12-29T02:18:06;99768.38;;;8.10;93.93
66681;BME280;73718;51.366;12.350;2023-12-29T02:20:33;99765.75;;;8.11;94.05
66681;BME280;73718;51.366;12.350;2023-12-29T02:22:58;99766.56;;;8.19;92.98
66681;BME280;73718;51.366;12.350;2023-12-29T02:25:25;99764.81;;;8.20;93.01
66681;BME280;73718;51.366;12.350;2023-12-29T02:30:41;99759.59;;;8.23;92.56
66681;BME280;73718;51.366;12.350;2023-12-29T02:33:11;99752.66;;;8.20;92.57
66681;BME280;73718;51.366;12.350;2023-12-29T02:35:41;99745.75;;;8.16;92.91
66681;BME280;73718;51.366;12.350;2023-12-29T02:38:07;99739.72;;;8.14;92.90
66681;BME280;73718;51.366;12.350;2023-12-29T02:40:33;99738.84;;;8.17;92.71
66681;BME280;73718;51.366;12.350;2023-12-29T02:42:59;99733.63;;;8.15;92.65
66681;BME280;73718;51.366;12.350;2023-12-29T02:45:24;99728.44;;;8.12;93.03
66681;BME280;73718;51.366;12.350;2023-12-29T02:47:50;99733.69;;;8.09;93.34
66681;BME280;73718;51.366;12.350;2023-12-29T02:50:16;99731.94;;;8.08;93.82
66681;BME280;73718;51.366;12.350;2023-12-29T02:52:42;99721.53;;;8.06;93.62
66681;BME280;73718;51.366;12.350;2023-12-29T02:55:07;99735.41;;;8.04;93.88
66681;BME280;73718;51.366;12.350;2023-12-29T02:57:33;99730.22;;;8.01;93.77
66681;BME280;73718;51.366;12.350;2023-12-29T02:59:58;99733.72;;;7.97;94.09
66681;BME280;73718;51.366;12.350;2023-12-29T03:02:24;99727.69;;;7.92;94.99
66681;BME280;73718;51.366;12.350;2023-12-29T03:04:49;99738.97;;;7.88;95.50
66681;BME280;73718;51.366;12.350;2023-12-29T03:07:15;99741.59;;;7.86;95.50
66681;BME280;73718;51.366;12.350;2023-12-29T03:09:40;99727.69;;;7.89;95.50
66681;BME280;73718;51.366;12.350;2023-12-29T03:12:06;99742.41;;;7.90;95.77
66681;BME280;73718;51.366;12.350;2023-12-29T03:14:32;99742.44;;;7.88;95.57
66681;BME280;73718;51.366;12.350;2023-12-29T03:16:58;99733.75;;;7.91;94.99
66681;BME280;73718;51.366;12.350;2023-12-29T03:19:23;99736.34;;;7.92;95.22
66681;BME280;73718;51.366;12.350;2023-12-29T03:21:49;99739.81;;;7.91;94.96
66681;BME280;73718;51.366;12.350;2023-12-29T03:24:14;99733.75;;;7.91;95.08
66681;BME280;73718;51.366;12.350;2023-12-29T03:26:40;99725.09;;;7.87;96.14
66681;BME280;73718;51.366;12.350;2023-12-29T03:29:06;99731.19;;;7.81;96.08
66681;BME280;73718;51.366;12.350;2023-12-29T03:31:31;99730.34;;;7.79;96.16
66681;BME280;73718;51.366;12.350;2023-12-29T03:33:56;99725.16;;;7.79;96.11
66681;BME280;73718;51.366;12.350;2023-12-29T03:36:22;99723.41;;;7.78;96.90
66681;BME280;73718;51.366;12.350;2023-12-29T03:38:47;99719.03;;;7.82;96.31
66681;BME280;73718;51.366;12.350;2023-12-29T03:41:12;99714.72;;;7.82;96.33
66681;BME280;73718;51.366;12.350;2023-12-29T03:43:38;99710.41;;;7.80;96.04
66681;BME280;73718;51.366;12.350;2023-12-29T03:46:03;99714.69;;;7.86;95.76
66681;BME280;73718;51.366;12.350;2023-12-29T03:48:39;99706.88;;;7.90;95.11
66681;BME280;73718;51.366;12.350;2023-12-29T03:51:05;99704.25;;;7.95;94.78
66681;BME280;73718;51.366;12.350;2023-12-29T03:53:30;99717.25;;;7.98;94.10
66681;BME280;73718;51.366;12.350;2023-12-29T03:55:56;99706.84;;;7.98;94.10
66681;BME280;73718;51.366;12.350;2023-12-29T03:58:21;99705.97;;;7.99;93.84
66681;BME280;73718;51.366;12.350;2023-12-29T04:00:46;99702.50;;;7.97;93.30
66681;BME280;73718;51.366;12.350;2023-12-29T04:03:12;99700.75;;;8.00;92.91
66681;BME280;73718;51.366;12.350;2023-12-29T04:05:37;99705.06;;;8.04;92.58
66681;BME280;73718;51.366;12.350;2023-12-29T04:08:03;99713.72;;;8.08;92.12
66681;BME280;73718;51.366;12.350;2023-12-29T04:10:28;99695.50;;;8.10;91.94
66681;BME280;73718;51.366;12.350;2023-12-29T04:12:53;99710.22;;;8.14;91.70
66681;BME280;73718;51.366;12.350;2023-12-29T04:15:19;99699.81;;;8.14;91.71
66681;BME280;73718;51.366;12.350;2023-12-29T04:17:44;99688.56;;;8.10;91.87
66681;BME280;73718;51.366;12.350;2023-12-29T04:20:10;99685.94;;;8.12;92.07
66681;BME280;73718;51.366;12.350;2023-12-29T04:22:35;99690.28;;;8.11;92.58
66681;BME280;73718;51.366;12.350;2023-12-29T04:25:01;99690.25;;;8.14;92.63
66681;BME280;73718;51.366;12.350;2023-12-29T04:27:26;99694.59;;;8.14;92.88
66681;BME280;73718;51.366;12.350;2023-12-29T04:29:52;99698.91;;;8.16;92.67
66681;BME280;73718;51.366;12.350;2023-12-29T04:32:17;99693.66;;;8.25;91.89
66681;BME280;73718;51.366;12.350;2023-12-29T04:34:42;99686.72;;;8.26;92.44
66681;BME280;73718;51.366;12.350;2023-12-29T04:37:08;99688.47;;;8.22;92.37
66681;BME280;73718;51.366;12.350;2023-12-29T04:39:33;99689.34;;;8.24;92.21
66681;BME280;73718;51.366;12.350;2023-12-29T04:41:59;99690.22;;;8.20;92.57
66681;BME280;73718;51.366;12.350;2023-12-29T04:44:24;99683.31;;;8.18;92.71
66681;BME280;73718;51.366;12.350;2023-12-29T04:46:49;99691.13;;;8.15;93.23
66681;BME280;73718;51.366;12.350;2023-12-29T04:49:15;99693.75;;;8.10;93.97
66681;BME280;73718;51.366;12.350;2023-12-29T04:51:40;99694.66;;;8.04;93.83
66681;BME280;73718;51.366;12.350;2023-12-29T04:54:06;99683.41;;;7.96;94.65
66681;BME280;73718;51.366;12.350;2023-12-29T04:56:31;99693.88;;;7.86;95.34
66681;BME280;73718;51.366;12.350;2023-12-29T04:58:56;99685.25;;;7.80;96.25
66681;BME280;73718;51.366;12.350;2023-12-29T05:01:22;99686.13;;;7.78;96.14
66681;BME280;73718;51.366;12.350;2023-12-29T05:03:47;99684.44;;;7.69;96.54
66681;BME280;73718;51.366;12.350;2023-12-29T05:06:12;99690.53;;;7.62;97.34
66681;BME280;73718;51.366;12.350;2023-12-29T05:08:38;99691.38;;;7.66;97.28
66681;BME280;73718;51.366;12.350;2023-12-29T05:11:03;99690.53;;;7.61;97.67
66681;BME280;73718;51.366;12.350;2023-12-29T05:13:29;99700.94;;;7.59;97.45
66681;BME280;73718;51.366;12.350;2023-12-29T05:15:54;99713.06;;;7.65;96.85
66681;BME280;73718;51.366;12.350;2023-12-29T05:18:20;99702.63;;;7.72;96.60
66681;BME280;73718;51.366;12.350;2023-12-29T05:20:45;99699.16;;;7.75;96.39
66681;BME280;73718;51.366;12.350;2023-12-29T05:23:11;99700.88;;;7.79;96.27
66681;BME280;73718;51.366;12.350;2023-12-29T05:25:36;99693.91;;;7.82;95.91
66681;BME280;73718;51.366;12.350;2023-12-29T05:28:02;99692.19;;;7.80;95.86
66681;BME280;73718;51.366;12.350;2023-12-29T05:30:27;99674.88;;;7.76;96.10
66681;BME280;73718;51.366;12.350;2023-12-29T05:32:56;99687.88;;;7.79;95.86
66681;BME280;73718;51.366;12.350;2023-12-29T05:35:21;99688.75;;;7.73;96.09
66681;BME280;73718;51.366;12.350;2023-12-29T05:37:47;99680.97;;;7.72;96.08
66681;BME280;73718;51.366;12.350;2023-12-29T05:40:12;99685.25;;;7.74;95.95
66681;BME280;73718;51.366;12.350;2023-12-29T05:42:38;99686.97;;;7.83;95.25
66681;BME280;73718;51.366;12.350;2023-12-29T05:45:03;99682.59;;;7.88;94.55
66681;BME280;73718;51.366;12.350;2023-12-29T05:47:29;99678.22;;;7.99;93.27
66681;BME280;73718;51.366;12.350;2023-12-29T05:49:54;99678.16;;;8.10;92.07
66681;BME280;73718;51.366;12.350;2023-12-29T05:52:21;99671.19;;;8.12;91.79
66681;BME280;73718;51.366;12.350;2023-12-29T05:54:46;99670.28;;;8.18;91.73
66681;BME280;73718;51.366;12.350;2023-12-29T05:57:12;99671.13;;;8.23;91.16
66681;BME280;73718;51.366;12.350;2023-12-29T05:59:37;99667.63;;;8.25;90.69
66681;BME280;73718;51.366;12.350;2023-12-29T06:02:03;99665.88;;;8.29;89.85
66681;BME280;73718;51.366;12.350;2023-12-29T06:04:28;99659.75;;;8.38;89.68
66681;BME280;73718;51.366;12.350;2023-12-29T06:06:54;99654.53;;;8.39;89.33
66681;BME280;73718;51.366;12.350;2023-12-29T06:09:19;99653.72;;;8.29;89.74
66681;BME280;73718;51.366;12.350;2023-12-29T06:11:45;99641.66;;;8.21;90.62
66681;BME280;73718;51.366;12.350;2023-12-29T06:14:10;99650.41;;;8.09;90.90
66681;BME280;73718;51.366;12.350;2023-12-29T06:16:36;99649.56;;;8.02;91.43
66681;BME280;73718;51.366;12.350;2023-12-29T06:19:01;99647.03;;;7.95;91.47
66681;BME280;73718;51.366;12.350;2023-12-29T06:21:29;99649.63;;;7.92;91.78
66681;BME280;73718;51.366;12.350;2023-12-29T06:23:54;99643.56;;;7.91;91.84
66681;BME280;73718;51.366;12.350;2023-12-29T06:26:20;99653.97;;;7.93;92.12
66681;BME280;73718;51.366;12.350;2023-12-29T06:28:46;99645.28;;;7.95;91.99
66681;BME280;73718;51.366;12.350;2023-12-29T06:31:12;99644.38;;;8.01;91.20
66681;BME280;73718;51.366;12.350;2023-12-29T06:33:43;99642.66;;;7.98;91.43
66681;BME280;73718;51.366;12.350;2023-12-29T06:36:10;99647.88;;;7.98;91.45
66681;BME280;73718;51.366;12.350;2023-12-29T06:38:36;99644.34;;;8.04;91.18
66681;BME280;73718;51.366;12.350;2023-12-29T06:41:04;99628.69;;;8.12;90.42
66681;BME280;73718;51.366;12.350;2023-12-29T06:43:30;99636.53;;;8.07;90.41
66681;BME280;73718;51.366;12.350;2023-12-29T06:45:56;99624.38;;;8.09;90.19
66681;BME280;73718;51.366;12.350;2023-12-29T06:48:21;99633.84;;;8.18;89.87
66681;BME280;73718;51.366;12.350;2023-12-29T06:50:47;99628.59;;;8.25;89.52
66681;BME280;73718;51.366;12.350;2023-12-29T06:53:13;99637.19;;;8.34;88.92
66681;BME280;73718;51.366;12.350;2023-12-29T06:55:38;99638.88;;;8.42;88.83
66681;BME280;73718;51.366;12.350;2023-12-29T06:58:07;99644.06;;;8.48;88.21
66681;BME280;73718;51.366;12.350;2023-12-29T07:00:33;99637.91;;;8.54;87.92
66681;BME280;73718;51.366;12.350;2023-12-29T07:03:00;99644.84;;;8.60;87.61
66681;BME280;73718;51.366;12.350;2023-12-29T07:05:26;99654.31;;;8.67;87.44
66681;BME280;73718;51.366;12.350;2023-12-29T07:07:51;99662.13;;;8.67;87.13
66681;BME280;73718;51.366;12.350;2023-12-29T07:10:16;99653.47;;;8.66;87.05
66681;BME280;73718;51.366;12.350;2023-12-29T07:12:42;99652.56;;;8.67;87.28
66681;BME280;73718;51.366;12.350;2023-12-29T07:15:08;99662.09;;;8.70;86.95
66681;BME280;73718;51.366;12.350;2023-12-29T07:17:33;99644.75;;;8.70;87.23
66681;BME280;73718;51.366;12.350;2023-12-29T07:19:59;99642.97;;;8.72;86.92
66681;BME280;73718;51.366;12.350;2023-12-29T07:22:25;99647.31;;;8.72;86.94
66681;BME280;73718;51.366;12.350;2023-12-29T07:24:51;99638.63;;;8.73;87.13
66681;BME280;73718;51.366;12.350;2023-12-29T07:27:16;99632.56;;;8.74;87.08
66681;BME280;73718;51.366;12.350;2023-12-29T07:29:42;99629.94;;;8.72;87.28
66681;BME280;73718;51.366;12.350;2023-12-29T07:32:07;99623.84;;;8.73;87.16
66681;BME280;73718;51.366;12.350;2023-12-29T07:34:33;99621.31;;;8.67;87.70
66681;BME280;73718;51.366;12.350;2023-12-29T07:36:59;99610.91;;;8.66;87.78
66681;BME280;73718;51.366;12.350;2023-12-29T07:39:25;99604.03;;;8.60;88.16
66681;BME280;73718;51.366;12.350;2023-12-29T07:41:50;99616.19;;;8.60;88.11
66681;BME280;73718;51.366;12.350;2023-12-29T07:44:17;99628.28;;;8.64;88.01
66681;BME280;73718;51.366;12.350;2023-12-29T07:46:43;99627.44;;;8.63;88.33
66681;BME280;73718;51.366;12.350;2023-12-29T07:49:09;99631.75;;;8.67;87.91
66681;BME280;73718;51.366;12.350;2023-12-29T07:51:39;99628.22;;;8.70;88.25
66681;BME280;73718;51.366;12.350;2023-12-29T07:54:05;99649.94;;;8.70;88.17
66681;BME280;73718;51.366;12.350;2023-12-29T07:56:30;99643.84;;;8.70;88.18
66681;BME280;73718;51.366;12.350;2023-12-29T07:58:55;99643.91;;;8.65;88.36
66681;BME280;73718;51.366;12.350;2023-12-29T08:01:21;99650.00;;;8.61;88.93
66681;BME280;73718;51.366;12.350;2023-12-29T08:03:46;99650.88;;;8.62;89.03
66681;BME280;73718;51.366;12.350;2023-12-29T08:06:12;99648.31;;;8.59;89.67
66681;BME280;73718;51.366;12.350;2023-12-29T08:08:38;99646.56;;;8.58;89.85
66681;BME280;73718;51.366;12.350;2023-12-29T08:11:03;99643.06;;;8.62;89.69
66681;BME280;73718;51.366;12.350;2023-12-29T08:13:28;99650.00;;;8.61;89.92
66681;BME280;73718;51.366;12.350;2023-12-29T08:15:54;99641.31;;;8.62;90.24
66681;BME280;73718;51.366;12.350;2023-12-29T08:18:19;99625.69;;;8.62;90.52
66681;BME280;73718;51.366;12.350;2023-12-29T08:20:45;99610.94;;;8.64;90.74
66681;BME280;73718;51.366;12.350;2023-12-29T08:23:10;99608.28;;;8.67;90.34
66681;BME280;73718;51.366;12.350;2023-12-29T08:25:35;99613.50;;;8.66;90.50
66681;BME280;73718;51.366;12.350;2023-12-29T08:28:04;99610.94;;;8.64;90.93
66681;BME280;73718;51.366;12.350;2023-12-29T08:30:30;99604.78;;;8.71;90.44
66681;BME280;73718;51.366;12.350;2023-12-29T08:32:56;99614.25;;;8.77;90.60
66681;BME280;73718;51.366;12.350;2023-12-29T08:35:22;99613.41;;;8.76;91.05
66681;BME280;73718;51.366;12.350;2023-12-29T08:37:48;99609.06;;;8.77;91.09
66681;BME280;73718;51.366;12.350;2023-12-29T08:40:13;99609.91;;;8.79;90.87
66681;BME280;73718;51.366;12.350;2023-12-29T08:42:38;99615.97;;;8.83;90.73
66681;BME280;73718;51.366;12.350;2023-12-29T08:45:04;99629.81;;;8.85;90.60
66681;BME280;73718;51.366;12.350;2023-12-29T08:47:30;99609.88;;;8.84;91.06
66681;BME280;73718;51.366;12.350;2023-12-29T08:49:55;99622.84;;;8.88;90.80
66681;BME280;73718;51.366;12.350;2023-12-29T08:52:20;99621.91;;;8.92;90.84
66681;BME280;73718;51.366;12.350;2023-12-29T08:54:46;99618.41;;;8.96;90.46
66681;BME280;73718;51.366;12.350;2023-12-29T08:57:12;99616.69;;;8.97;90.65
66681;BME280;73718;51.366;12.350;2023-12-29T08:59:37;99633.16;;;9.00;90.77
66681;BME280;73718;51.366;12.350;2023-12-29T09:02:03;99646.91;;;9.13;90.05
66681;BME280;73718;51.366;12.350;2023-12-29T09:04:28;99649.47;;;9.16;90.10
66681;BME280;73718;51.366;12.350;2023-12-29T09:06:54;99643.38;;;9.17;90.10
66681;BME280;73718;51.366;12.350;2023-12-29T09:09:19;99643.34;;;9.19;90.46
66681;BME280;73718;51.366;12.350;2023-12-29T09:11:45;99642.44;;;9.24;89.93
66681;BME280;73718;51.366;12.350;2023-12-29T09:14:12;99646.75;;;9.25;90.23
66681;BME280;73718;51.366;12.350;2023-12-29T09:16:37;99649.25;;;9.35;90.00
66681;BME280;73718;51.366;12.350;2023-12-29T09:19:06;99668.25;;;9.46;89.59
66681;BME280;73718;51.366;12.350;2023-12-29T09:21:31;99654.31;;;9.48;89.45
66681;BME280;73718;51.366;12.350;2023-12-29T09:23:57;99644.72;;;9.50;89.38
66681;BME280;73718;51.366;12.350;2023-12-29T09:26:23;99656.91;;;9.48;89.77
66681;BME280;73718;51.366;12.350;2023-12-29T09:28:49;99663.91;;;9.46;90.10
66681;BME280;73718;51.366;12.350;2023-12-29T09:31:14;99668.25;;;9.47;89.71
66681;BME280;73718;51.366;12.350;2023-12-29T09:33:40;99672.50;;;9.53;89.59
66681;BME280;73718;51.366;12.350;2023-12-29T09:36:06;99669.91;;;9.53;89.68
66681;BME280;73718;51.366;12.350;2023-12-29T09:38:31;99676.88;;;9.51;90.09
66681;BME280;73718;51.366;12.350;2023-12-29T09:41:04;99665.59;;;9.49;90.28
66681;BME280;73718;51.366;12.350;2023-12-29T09:43:33;99676.91;;;9.48;90.24
66681;BME280;73718;51.366;12.350;2023-12-29T09:46:01;99676.91;;;9.48;90.59
66681;BME280;73718;51.366;12.350;2023-12-29T09:48:28;99689.06;;;9.50;90.48
66681;BME280;73718;51.366;12.350;2023-12-29T09:50:57;99671.63;;;9.56;90.42
66681;BME280;73718;51.366;12.350;2023-12-29T09:53:22;99688.88;;;9.64;90.06
66681;BME280;73718;51.366;12.350;2023-12-29T09:55:51;99702.72;;;9.71;89.70
66681;BME280;73718;51.366;12.350;2023-12-29T09:58:19;99693.13;;;9.74;89.51
66681;BME280;73718;51.366;12.350;2023-12-29T10:00:47;99683.44;;;9.83;88.98
66681;BME280;73718;51.366;12.350;2023-12-29T10:03:20;99686.00;;;9.84;88.75
66681;BME280;73718;51.366;12.350;2023-12-29T10:05:50;99679.97;;;9.82;89.09
66681;BME280;73718;51.366;12.350;2023-12-29T10:08:16;99682.63;;;9.79;88.87
66681;BME280;73718;51.366;12.350;2023-12-29T10:10:42;99680.88;;;9.80;89.02
66681;BME280;73718;51.366;12.350;2023-12-29T10:13:09;99680.03;;;9.77;89.07
66681;BME280;73718;51.366;12.350;2023-12-29T10:15:44;99680.88;;;9.80;88.99
66681;BME280;73718;51.366;12.350;2023-12-29T10:21:02;99690.25;;;9.94;87.49
66681;BME280;73718;51.366;12.350;2023-12-29T10:23:37;99690.09;;;10.05;87.23
66681;BME280;73718;51.366;12.350;2023-12-29T10:26:04;99683.91;;;10.12;87.02
66681;BME280;73718;51.366;12.350;2023-12-29T10:28:31;99679.59;;;10.11;86.55
66681;BME280;73718;51.366;12.350;2023-12-29T10:30:57;99690.03;;;10.11;86.65
66681;BME280;73718;51.366;12.350;2023-12-29T10:33:23;99684.72;;;10.14;86.94
66681;BME280;73718;51.366;12.350;2023-12-29T10:35:58;99685.56;;;10.19;86.48
66681;BME280;73718;51.366;12.350;2023-12-29T10:38:33;99693.31;;;10.22;86.34
66681;BME280;73718;51.366;12.350;2023-12-29T10:41:11;99702.00;;;10.24;86.10
66681;BME280;73718;51.366;12.350;2023-12-29T10:43:38;99696.78;;;10.24;85.71
66681;BME280;73718;51.366;12.350;2023-12-29T10:46:07;99697.66;;;10.23;85.59
66681;BME280;73718;51.366;12.350;2023-12-29T10:48:36;99693.34;;;10.21;85.67
66681;BME280;73718;51.366;12.350;2023-12-29T10:51:03;99694.25;;;10.20;85.95
66681;BME280;73718;51.366;12.350;2023-12-29T10:53:38;99683.81;;;10.18;86.04
66681;BME280;73718;51.366;12.350;2023-12-29T10:56:04;99684.69;;;10.17;86.06
66681;BME280;73718;51.366;12.350;2023-12-29T10:58:30;99672.53;;;10.16;86.00
66681;BME280;73718;51.366;12.350;2023-12-29T11:01:00;99679.41;;;10.23;85.86
66681;BME280;73718;51.366;12.350;2023-12-29T11:03:29;99677.63;;;10.25;85.85
66681;BME280;73718;51.366;12.350;2023-12-29T11:06:10;99680.16;;;10.32;85.96
66681;BME280;73718;51.366;12.350;2023-12-29T11:08:36;99680.06;;;10.39;85.71
66681;BME280;73718;51.366;12.350;2023-12-29T11:11:05;99680.72;;;10.52;84.52
66681;BME280;73718;51.366;12.350;2023-12-29T11:13:33;99670.88;;;10.68;83.63
66681;BME280;73718;51.366;12.350;2023-12-29T11:15:59;99681.03;;;10.85;83.09
66681;BME280;73718;51.366;12.350;2023-12-29T11:18:35;99677.38;;;10.95;82.22
66681;BME280;73718;51.366;12.350;2023-12-29T11:21:02;99686.81;;;11.02;81.59
66681;BME280;73718;51.366;12.350;2023-12-29T11:23:28;99678.97;;;11.04;82.00
66681;BME280;73718;51.366;12.350;2023-12-29T11:25:54;99672.88;;;11.03;82.07
66681;BME280;73718;51.366;12.350;2023-12-29T11:28:21;99672.88;;;11.03;81.48
66681;BME280;73718;51.366;12.350;2023-12-29T11:30:46;99666.75;;;11.03;81.99
66681;BME280;73718;51.366;12.350;2023-12-29T11:33:17;99666.91;;;10.96;82.47
66681;BME280;73718;51.366;12.350;2023-12-29T11:38:33;99662.69;;;10.88;82.76
66681;BME280;73718;51.366;12.350;2023-12-29T11:41:43;99671.50;;;10.82;83.53
66681;BME280;73718;51.366;12.350;2023-12-29T11:44:11;99655.84;;;10.81;83.39
66681;BME280;73718;51.366;12.350;2023-12-29T11:46:39;99656.81;;;10.77;83.18
66681;BME280;73718;51.366;12.350;2023-12-29T11:49:05;99658.56;;;10.74;83.74
66681;BME280;73718;51.366;12.350;2023-12-29T11:51:34;99656.03;;;10.70;84.44
66681;BME280;73718;51.366;12.350;2023-12-29T11:54:01;99653.47;;;10.67;84.64
66681;BME280;73718;51.366;12.350;2023-12-29T11:56:34;99642.13;;;10.68;84.67
66681;BME280;73718;51.366;12.350;2023-12-29T12:01:38;99646.66;;;10.57;86.47
66681;BME280;73718;51.366;12.350;2023-12-29T12:04:04;99649.28;;;10.57;87.21
66681;BME280;73718;51.366;12.350;2023-12-29T12:06:39;99645.88;;;10.53;88.60
66681;BME280;73718;51.366;12.350;2023-12-29T12:09:23;99641.56;;;10.51;88.87
66681;BME280;73718;51.366;12.350;2023-12-29T12:11:52;99646.00;;;10.45;89.36
66681;BME280;73718;51.366;12.350;2023-12-29T12:15:09;99646.91;;;10.41;89.74
66681;BME280;73718;51.366;12.350;2023-12-29T12:17:32;99627.78;;;10.41;89.71
66681;BME280;73718;51.366;12.350;2023-12-29T12:20:01;99643.41;;;10.44;88.96
66681;BME280;73718;51.366;12.350;2023-12-29T12:22:31;99625.88;;;10.51;88.18
66681;BME280;73718;51.366;12.350;2023-12-29T12:25:00;99632.78;;;10.55;88.02
66681;BME280;73718;51.366;12.350;2023-12-29T12:27:30;99625.72;;;10.60;87.05
66681;BME280;73718;51.366;12.350;2023-12-29T12:29:57;99634.31;;;10.66;86.80
66681;BME280;73718;51.366;12.350;2023-12-29T12:32:27;99629.00;;;10.72;86.70
66681;BME280;73718;51.366;12.350;2023-12-29T12:34:53;99621.88;;;10.79;86.48
66681;BME280;73718;51.366;12.350;2023-12-29T12:37:20;99616.66;;;10.81;86.29
66681;BME280;73718;51.366;12.350;2023-12-29T12:39:45;99614.03;;;10.81;85.31
66681;BME280;73718;51.366;12.350;2023-12-29T12:42:11;99620.19;;;10.78;85.13
66681;BME280;73718;51.366;12.350;2023-12-29T12:44:41;99620.22;;;10.75;85.66
66681;BME280;73718;51.366;12.350;2023-12-29T12:47:15;99621.09;;;10.76;84.87
66681;BME280;73718;51.366;12.350;2023-12-29T12:49:41;99617.66;;;10.73;85.20
66681;BME280;73718;51.366;12.350;2023-12-29T12:52:07;99614.19;;;10.71;85.30
66681;BME280;73718;51.366;12.350;2023-12-29T12:54:32;99616.78;;;10.73;85.28
66681;BME280;73718;51.366;12.350;2023-12-29T12:56:58;99606.34;;;10.73;85.26
66681;BME280;73718;51.366;12.350;2023-12-29T12:59:24;99614.19;;;10.71;85.40
66681;BME280;73718;51.366;12.350;2023-12-29T13:01:50;99605.47;;;10.72;85.45
66681;BME280;73718;51.366;12.350;2023-12-29T13:04:16;99604.59;;;10.72;85.46
66681;BME280;73718;51.366;12.350;2023-12-29T13:06:43;99607.25;;;10.70;85.60
66681;BME280;73718;51.366;12.350;2023-12-29T13:09:11;99602.06;;;10.67;85.98